sensor_id;sensor_type;location;lat;lon;timestamp;temperature;humidity
19847;DHT22;10084;50.518;8.588;2023-02-26T05:32:57;20.40;40.20
19847;DHT22;10084;50.518;8.588;2023-02-26T05:35:23;20.40;40.30
19847;DHT22;10084;50.518;8.588;2023-02-26T05:37:49;20.40;40.30
19847;DHT22;10084;50.518;8.588;2023-02-26T05:40:14;20.40;40.30
19847;DHT22;10084;50.518;8.588;2023-02-26T05:42:40;20.40;40.40
19847;DHT22;10084;50.518;8.588;2023-02-26T05:45:07;20.40;40.30
19847;DHT22;10084;50.518;8.588;2023-02-26T05:47:33;20.40;40.30
19847;DHT22;10084;50.518;8.588;2023-02-26T05:49:59;20.40;40.30
19847;DHT22;10084;50.518;8.588;2023-02-26T05:52:26;20.40;40.30
19847;DHT22;10084;50.518;8.588;2023-02-26T05:54:52;20.40;40.30
19847;DHT22;10084;50.518;8.588;2023-02-26T05:57:17;20.40;40.30
19847;DHT22;10084;50.518;8.588;2023-02-26T05:59:43;20.40;40.30
19847;DHT22;10084;50.518;8.588;2023-02-26T06:02:09;20.40;40.30
19847;DHT22;10084;50.518;8.588;2023-02-26T06:04:35;20.40;40.30
19847;DHT22;10084;50.518;8.588;2023-02-26T06:07:01;20.40;40.30
19847;DHT22;10084;50.518;8.588;2023-02-26T06:09:27;20.40;40.30
19847;DHT22;10084;50.518;8.588;2023-02-26T06:11:52;20.40;40.30
19847;DHT22;10084;50.518;8.588;2023-02-26T06:14:18;20.30;40.20
19847;DHT22;10084;50.518;8.588;2023-02-26T06:16:45;20.30;40.20
19847;DHT22;10084;50.518;8.588;2023-02-26T06:19:10;20.30;40.40
19847;DHT22;10084;50.518;8.588;2023-02-26T06:21:36;20.30;40.30
19847;DHT22;10084;50.518;8.588;2023-02-26T06:24:02;20.30;40.40
19847;DHT22;10084;50.518;8.588;2023-02-26T06:26:28;20.30;40.30
19847;DHT22;10084;50.518;8.588;2023-02-26T06:28:53;20.30;40.40
19847;DHT22;10084;50.518;8.588;2023-02-26T06:31:19;20.30;40.40
19847;DHT22;10084;50.518;8.588;2023-02-26T06:33:45;20.30;40.40
19847;DHT22;10084;50.518;8.588;2023-02-26T06:36:11;20.30;40.50
19847;DHT22;10084;50.518;8.588;2023-02-26T06:38:37;20.30;40.40
19847;DHT22;10084;50.518;8.588;2023-02-26T06:41:03;20.30;40.40
19847;DHT22;10084;50.518;8.588;2023-02-26T06:43:28;20.30;40.40
19847;DHT22;10084;50.518;8.588;2023-02-26T06:45:57;20.30;40.50
19847;DHT22;10084;50.518;8.588;2023-02-26T06:48:23;20.30;40.60
19847;DHT22;10084;50.518;8.588;2023-02-26T06:50:49;20.30;40.60
19847;DHT22;10084;50.518;8.588;2023-02-26T06:53:15;20.30;40.70
19847;DHT22;10084;50.518;8.588;2023-02-26T06:55:43;20.30;40.80
19847;DHT22;10084;50.518;8.588;2023-02-26T06:58:09;20.20;40.80
19847;DHT22;10084;50.518;8.588;2023-02-26T07:00:34;20.20;40.90
19847;DHT22;10084;50.518;8.588;2023-02-26T07:03:03;20.20;41.00
19847;DHT22;10084;50.518;8.588;2023-02-26T07:05:29;20.20;41.30
19847;DHT22;10084;50.518;8.588;2023-02-26T07:07:55;20.20;41.60
19847;DHT22;10084;50.518;8.588;2023-02-26T07:10:21;20.20;41.70
19847;DHT22;10084;50.518;8.588;2023-02-26T07:12:46;20.20;41.80
19847;DHT22;10084;50.518;8.588;2023-02-26T07:15:13;20.20;41.90
19847;DHT22;10084;50.518;8.588;2023-02-26T07:17:39;20.20;41.90
19847;DHT22;10084;50.518;8.588;2023-02-26T07:20:05;20.20;42.00
19847;DHT22;10084;50.518;8.588;2023-02-26T07:22:35;20.20;41.90
19847;DHT22;10084;50.518;8.588;2023-02-26T07:25:03;20.20;41.90
19847;DHT22;10084;50.518;8.588;2023-02-26T07:27:30;20.20;41.90
19847;DHT22;10084;50.518;8.588;2023-02-26T07:29:56;20.20;42.00
19847;DHT22;10084;50.518;8.588;2023-02-26T07:32:22;20.20;42.20
19847;DHT22;10084;50.518;8.588;2023-02-26T07:34:48;20.20;42.30
19847;DHT22;10084;50.518;8.588;2023-02-26T07:37:14;20.20;42.40
19847;DHT22;10084;50.518;8.588;2023-02-26T07:39:40;20.20;42.40
19847;DHT22;10084;50.518;8.588;2023-02-26T07:42:06;20.20;42.30
19847;DHT22;10084;50.518;8.588;2023-02-26T07:44:32;20.20;42.50
19847;DHT22;10084;50.518;8.588;2023-02-26T07:46:58;20.20;42.70
19847;DHT22;10084;50.518;8.588;2023-02-26T07:49:24;20.20;42.80
19847;DHT22;10084;50.518;8.588;2023-02-26T07:51:50;20.20;42.80
19847;DHT22;10084;50.518;8.588;2023-02-26T07:54:16;20.20;42.80
19847;DHT22;10084;50.518;8.588;2023-02-26T07:56:41;20.20;42.90
19847;DHT22;10084;50.518;8.588;2023-02-26T07:59:08;20.20;42.90
19847;DHT22;10084;50.518;8.588;2023-02-26T08:01:34;20.20;42.90
19847;DHT22;10084;50.518;8.588;2023-02-26T08:04:01;20.20;43.00
19847;DHT22;10084;50.518;8.588;2023-02-26T08:06:27;20.20;43.10
19847;DHT22;10084;50.518;8.588;2023-02-26T08:08:53;20.20;43.20
19847;DHT22;10084;50.518;8.588;2023-02-26T08:11:19;20.20;43.10
19847;DHT22;10084;50.518;8.588;2023-02-26T08:13:45;20.20;43.20
19847;DHT22;10084;50.518;8.588;2023-02-26T08:16:10;20.20;43.30
19847;DHT22;10084;50.518;8.588;2023-02-26T08:18:36;20.20;43.70
19847;DHT22;10084;50.518;8.588;2023-02-26T08:21:02;20.10;44.50
19847;DHT22;10084;50.518;8.588;2023-02-26T08:23:28;20.10;45.80
19847;DHT22;10084;50.518;8.588;2023-02-26T08:26:06;20.10;46.60
19847;DHT22;10084;50.518;8.588;2023-02-26T08:28:32;20.10;46.90
19847;DHT22;10084;50.518;8.588;2023-02-26T08:30:59;20.10;46.80
19847;DHT22;10084;50.518;8.588;2023-02-26T08:33:26;20.10;47.00
19847;DHT22;10084;50.518;8.588;2023-02-26T08:35:52;20.00;47.50
19847;DHT22;10084;50.518;8.588;2023-02-26T08:38:19;20.00;47.40
19847;DHT22;10084;50.518;8.588;2023-02-26T08:40:48;20.00;47.30
19847;DHT22;10084;50.518;8.588;2023-02-26T08:43:14;20.00;47.60
19847;DHT22;10084;50.518;8.588;2023-02-26T08:45:40;20.00;47.70
19847;DHT22;10084;50.518;8.588;2023-02-26T08:48:06;20.00;47.80
19847;DHT22;10084;50.518;8.588;2023-02-26T08:50:32;20.00;47.90
19847;DHT22;10084;50.518;8.588;2023-02-26T08:52:57;20.00;47.90
19847;DHT22;10084;50.518;8.588;2023-02-26T08:55:23;20.00;48.00
19847;DHT22;10084;50.518;8.588;2023-02-26T08:57:49;20.00;48.10
19847;DHT22;10084;50.518;8.588;2023-02-26T09:00:15;20.00;48.30
19847;DHT22;10084;50.518;8.588;2023-02-26T09:02:43;20.00;48.90
19847;DHT22;10084;50.518;8.588;2023-02-26T09:05:09;20.00;49.50
19847;DHT22;10084;50.518;8.588;2023-02-26T09:07:35;20.00;50.20
19847;DHT22;10084;50.518;8.588;2023-02-26T09:10:00;20.00;51.90
19847;DHT22;10084;50.518;8.588;2023-02-26T09:12:26;20.00;51.30
19847;DHT22;10084;50.518;8.588;2023-02-26T09:14:52;19.90;50.60
19847;DHT22;10084;50.518;8.588;2023-02-26T09:17:18;19.90;50.40
19847;DHT22;10084;50.518;8.588;2023-02-26T09:19:43;19.90;50.20
19847;DHT22;10084;50.518;8.588;2023-02-26T09:22:09;19.90;50.30
19847;DHT22;10084;50.518;8.588;2023-02-26T09:24:35;19.90;50.20
19847;DHT22;10084;50.518;8.588;2023-02-26T09:27:01;19.90;50.50
19847;DHT22;10084;50.518;8.588;2023-02-26T09:29:28;19.90;50.60
19847;DHT22;10084;50.518;8.588;2023-02-26T09:31:54;19.90;50.70
19847;DHT22;10084;50.518;8.588;2023-02-26T09:34:20;19.90;50.80
19847;DHT22;10084;50.518;8.588;2023-02-26T09:36:46;19.90;50.80
19847;DHT22;10084;50.518;8.588;2023-02-26T09:39:12;19.90;51.10
19847;DHT22;10084;50.518;8.588;2023-02-26T09:41:46;19.90;51.80
19847;DHT22;10084;50.518;8.588;2023-02-26T09:44:19;19.80;53.10
19847;DHT22;10084;50.518;8.588;2023-02-26T09:49:49;19.80;55.00
19847;DHT22;10084;50.518;8.588;2023-02-26T09:52:36;19.80;56.50
19847;DHT22;10084;50.518;8.588;2023-02-26T09:55:13;19.80;57.30
19847;DHT22;10084;50.518;8.588;2023-02-26T09:57:44;19.80;58.70
19847;DHT22;10084;50.518;8.588;2023-02-26T10:00:35;19.80;60.20
19847;DHT22;10084;50.518;8.588;2023-02-26T10:03:24;19.80;59.80
19847;DHT22;10084;50.518;8.588;2023-02-26T10:11:42;19.80;62.00
19847;DHT22;10084;50.518;8.588;2023-02-26T10:16:45;19.80;62.00
19847;DHT22;10084;50.518;8.588;2023-02-26T10:19:18;19.80;61.80
19847;DHT22;10084;50.518;8.588;2023-02-26T10:21:52;19.80;61.80
19847;DHT22;10084;50.518;8.588;2023-02-26T10:24:30;19.80;61.80
19847;DHT22;10084;50.518;8.588;2023-02-26T10:27:04;19.80;61.60
19847;DHT22;10084;50.518;8.588;2023-02-26T10:29:44;19.70;60.70
19847;DHT22;10084;50.518;8.588;2023-02-26T10:34:55;19.80;61.80
19847;DHT22;10084;50.518;8.588;2023-02-26T10:37:48;19.80;62.20
19847;DHT22;10084;50.518;8.588;2023-02-26T10:40:46;19.70;62.40
19847;DHT22;10084;50.518;8.588;2023-02-26T10:43:33;19.80;61.70
19847;DHT22;10084;50.518;8.588;2023-02-26T10:51:36;19.70;61.80
19847;DHT22;10084;50.518;8.588;2023-02-26T10:54:11;19.70;62.90
19847;DHT22;10084;50.518;8.588;2023-02-26T10:56:39;19.70;63.60
19847;DHT22;10084;50.518;8.588;2023-02-26T10:59:04;19.70;65.20
19847;DHT22;10084;50.518;8.588;2023-02-26T11:01:31;19.70;66.20
19847;DHT22;10084;50.518;8.588;2023-02-26T11:04:05;19.70;67.40
19847;DHT22;10084;50.518;8.588;2023-02-26T11:06:41;19.70;67.60
19847;DHT22;10084;50.518;8.588;2023-02-26T11:11:54;19.70;68.30
19847;DHT22;10084;50.518;8.588;2023-02-26T11:16:57;19.40;37.40
19847;DHT22;10084;50.518;8.588;2023-02-26T11:22:02;19.20;56.50
19847;DHT22;10084;50.518;8.588;2023-02-26T11:24:36;19.00;37.30
19847;DHT22;10084;50.518;8.588;2023-02-26T11:27:05;18.80;36.90
19847;DHT22;10084;50.518;8.588;2023-02-26T11:29:42;18.70;36.80
19847;DHT22;10084;50.518;8.588;2023-02-26T11:32:20;18.60;36.60
19847;DHT22;10084;50.518;8.588;2023-02-26T11:34:48;18.60;36.60
19847;DHT22;10084;50.518;8.588;2023-02-26T11:37:21;18.50;36.50
19847;DHT22;10084;50.518;8.588;2023-02-26T11:39:52;18.50;36.40
19847;DHT22;10084;50.518;8.588;2023-02-26T11:42:19;18.50;36.40
19847;DHT22;10084;50.518;8.588;2023-02-26T11:44:46;18.40;36.30
19847;DHT22;10084;50.518;8.588;2023-02-26T11:47:23;18.40;36.20
19847;DHT22;10084;50.518;8.588;2023-02-26T11:49:54;18.40;35.90
19847;DHT22;10084;50.518;8.588;2023-02-26T11:52:34;18.40;36.00
19847;DHT22;10084;50.518;8.588;2023-02-26T11:55:03;18.40;35.90
19847;DHT22;10084;50.518;8.588;2023-02-26T11:57:31;18.40;35.90
19847;DHT22;10084;50.518;8.588;2023-02-26T11:59:59;18.40;35.80
19847;DHT22;10084;50.518;8.588;2023-02-26T12:02:32;18.50;35.80
19847;DHT22;10084;50.518;8.588;2023-02-26T12:05:04;18.50;35.80
19847;DHT22;10084;50.518;8.588;2023-02-26T12:07:44;18.50;35.40
19847;DHT22;10084;50.518;8.588;2023-02-26T12:10:23;18.50;35.30
19847;DHT22;10084;50.518;8.588;2023-02-26T12:13:44;18.50;35.20
19847;DHT22;10084;50.518;8.588;2023-02-26T12:22:07;18.50;35.20
19847;DHT22;10084;50.518;8.588;2023-02-26T12:27:31;18.50;35.20
19847;DHT22;10084;50.518;8.588;2023-02-26T12:35:46;18.40;35.00
19847;DHT22;10084;50.518;8.588;2023-02-26T12:38:29;18.30;34.90
19847;DHT22;10084;50.518;8.588;2023-02-26T12:41:15;18.30;35.00
19847;DHT22;10084;50.518;8.588;2023-02-26T12:48:51;18.30;34.80
19847;DHT22;10084;50.518;8.588;2023-02-26T12:57:10;18.20;34.70
19847;DHT22;10084;50.518;8.588;2023-02-26T13:00:12;18.20;34.70
19847;DHT22;10084;50.518;8.588;2023-02-26T13:03:10;18.20;34.60
19847;DHT22;10084;50.518;8.588;2023-02-26T13:11:01;18.10;34.50
19847;DHT22;10084;50.518;8.588;2023-02-26T13:16:12;18.10;34.50
19847;DHT22;10084;50.518;8.588;2023-02-26T13:19:34;18.10;34.50
19847;DHT22;10084;50.518;8.588;2023-02-26T13:21:42;18.10;34.50
19847;DHT22;10084;50.518;8.588;2023-02-26T13:26:39;18.10;34.40
19847;DHT22;10084;50.518;8.588;2023-02-26T13:31:42;18.10;34.30
19847;DHT22;10084;50.518;8.588;2023-02-26T13:34:18;18.20;34.20
19847;DHT22;10084;50.518;8.588;2023-02-26T13:36:45;18.20;34.10
19847;DHT22;10084;50.518;8.588;2023-02-26T13:39:23;18.10;34.00
19847;DHT22;10084;50.518;8.588;2023-02-26T13:42:16;18.20;33.90
19847;DHT22;10084;50.518;8.588;2023-02-26T13:45:12;18.10;33.70
19847;DHT22;10084;50.518;8.588;2023-02-26T13:47:55;18.10;33.60
19847;DHT22;10084;50.518;8.588;2023-02-26T13:50:49;18.10;33.60
19847;DHT22;10084;50.518;8.588;2023-02-26T13:53:46;18.10;33.70
19847;DHT22;10084;50.518;8.588;2023-02-26T13:59:23;18.00;33.30
19847;DHT22;10084;50.518;8.588;2023-02-26T14:01:54;18.00;33.40
19847;DHT22;10084;50.518;8.588;2023-02-26T14:10:26;18.00;33.20
19847;DHT22;10084;50.518;8.588;2023-02-26T14:16:26;17.90;33.20
19847;DHT22;10084;50.518;8.588;2023-02-26T14:18:34;18.00;33.30
19847;DHT22;10084;50.518;8.588;2023-02-26T14:21:35;17.90;33.30
19847;DHT22;10084;50.518;8.588;2023-02-26T14:42:51;17.90;32.10
19847;DHT22;10084;50.518;8.588;2023-02-26T14:45:01;17.90;32.80
19847;DHT22;10084;50.518;8.588;2023-02-26T14:47:28;17.90;32.80
19847;DHT22;10084;50.518;8.588;2023-02-26T14:49:54;17.90;32.80
19847;DHT22;10084;50.518;8.588;2023-02-26T14:58:31;17.80;32.50
19847;DHT22;10084;50.518;8.588;2023-02-26T15:01:07;17.80;32.60
19847;DHT22;10084;50.518;8.588;2023-02-26T15:04:09;17.80;32.60
19847;DHT22;10084;50.518;8.588;2023-02-26T15:06:53;17.80;32.50
19847;DHT22;10084;50.518;8.588;2023-02-26T15:12:25;17.80;32.50
19847;DHT22;10084;50.518;8.588;2023-02-26T15:15:17;17.80;32.50
19847;DHT22;10084;50.518;8.588;2023-02-26T15:21:11;17.80;32.50
19847;DHT22;10084;50.518;8.588;2023-02-26T15:23:51;17.80;32.40
19847;DHT22;10084;50.518;8.588;2023-02-26T15:26:32;17.80;32.50
19847;DHT22;10084;50.518;8.588;2023-02-26T15:29:01;17.70;32.40
19847;DHT22;10084;50.518;8.588;2023-02-26T15:31:40;17.70;32.40
19847;DHT22;10084;50.518;8.588;2023-02-26T15:34:10;17.70;32.30
19847;DHT22;10084;50.518;8.588;2023-02-26T15:36:47;17.70;32.30
19847;DHT22;10084;50.518;8.588;2023-02-26T15:39:16;17.70;32.30
19847;DHT22;10084;50.518;8.588;2023-02-26T15:41:44;17.70;32.30
19847;DHT22;10084;50.518;8.588;2023-02-26T15:44:21;17.70;32.20
19847;DHT22;10084;50.518;8.588;2023-02-26T15:47:00;17.70;32.10
19847;DHT22;10084;50.518;8.588;2023-02-26T15:49:36;17.70;32.10
19847;DHT22;10084;50.518;8.588;2023-02-26T15:52:04;17.70;32.30
19847;DHT22;10084;50.518;8.588;2023-02-26T15:54:42;17.80;32.40
19847;DHT22;10084;50.518;8.588;2023-02-26T15:57:09;17.80;32.50
19847;DHT22;10084;50.518;8.588;2023-02-26T15:59:41;17.90;32.60
19847;DHT22;10084;50.518;8.588;2023-02-26T16:02:13;18.00;32.70
19847;DHT22;10084;50.518;8.588;2023-02-26T16:04:44;18.00;32.80
19847;DHT22;10084;50.518;8.588;2023-02-26T16:07:12;18.10;33.00
19847;DHT22;10084;50.518;8.588;2023-02-26T16:09:41;18.20;33.10
19847;DHT22;10084;50.518;8.588;2023-02-26T16:12:18;18.20;33.10
19847;DHT22;10084;50.518;8.588;2023-02-26T16:15:05;18.30;33.20
19847;DHT22;10084;50.518;8.588;2023-02-26T16:17:39;18.40;33.30
19847;DHT22;10084;50.518;8.588;2023-02-26T16:20:20;18.50;33.40
19847;DHT22;10084;50.518;8.588;2023-02-26T16:22:55;18.60;33.40
19847;DHT22;10084;50.518;8.588;2023-02-26T16:25:35;18.70;33.50
19847;DHT22;10084;50.518;8.588;2023-02-26T16:28:11;18.80;33.60
19847;DHT22;10084;50.518;8.588;2023-02-26T16:30:42;18.90;33.70
19847;DHT22;10084;50.518;8.588;2023-02-26T16:33:11;18.90;33.70
19847;DHT22;10084;50.518;8.588;2023-02-26T16:35:45;19.00;33.70
19847;DHT22;10084;50.518;8.588;2023-02-26T16:38:27;19.00;33.80
19847;DHT22;10084;50.518;8.588;2023-02-26T16:41:04;19.00;33.80
19847;DHT22;10084;50.518;8.588;2023-02-26T16:43:34;19.10;33.80
19847;DHT22;10084;50.518;8.588;2023-02-26T16:46:03;19.20;33.90
19847;DHT22;10084;50.518;8.588;2023-02-26T16:51:20;19.30;34.00
19847;DHT22;10084;50.518;8.588;2023-02-26T16:53:58;19.30;34.00
19847;DHT22;10084;50.518;8.588;2023-02-26T16:56:38;19.40;34.10
19847;DHT22;10084;50.518;8.588;2023-02-26T16:59:25;19.40;34.10
19847;DHT22;10084;50.518;8.588;2023-02-26T17:02:00;19.50;34.20
19847;DHT22;10084;50.518;8.588;2023-02-26T17:04:30;19.50;34.20
19847;DHT22;10084;50.518;8.588;2023-02-26T17:06:57;19.60;34.30
19847;DHT22;10084;50.518;8.588;2023-02-26T17:09:38;19.60;34.30
19847;DHT22;10084;50.518;8.588;2023-02-26T17:12:20;19.70;34.40
19847;DHT22;10084;50.518;8.588;2023-02-26T17:14:56;19.70;34.50
19847;DHT22;10084;50.518;8.588;2023-02-26T17:17:23;19.70;34.50
19847;DHT22;10084;50.518;8.588;2023-02-26T17:19:49;19.70;34.50
19847;DHT22;10084;50.518;8.588;2023-02-26T17:22:17;19.80;34.60
19847;DHT22;10084;50.518;8.588;2023-02-26T17:24:44;19.80;34.60
19847;DHT22;10084;50.518;8.588;2023-02-26T17:27:33;19.80;34.70
19847;DHT22;10084;50.518;8.588;2023-02-26T17:30:02;19.90;34.70
19847;DHT22;10084;50.518;8.588;2023-02-26T17:32:28;19.90;34.70
19847;DHT22;10084;50.518;8.588;2023-02-26T17:34:57;20.00;34.80
19847;DHT22;10084;50.518;8.588;2023-02-26T17:37:30;20.00;34.80
19847;DHT22;10084;50.518;8.588;2023-02-26T17:39:58;20.00;34.90
19847;DHT22;10084;50.518;8.588;2023-02-26T17:42:25;20.10;34.90
19847;DHT22;10084;50.518;8.588;2023-02-26T17:44:51;20.20;35.00
19847;DHT22;10084;50.518;8.588;2023-02-26T17:47:19;20.20;35.00
19847;DHT22;10084;50.518;8.588;2023-02-26T17:49:47;20.20;35.10
19847;DHT22;10084;50.518;8.588;2023-02-26T17:52:13;20.20;35.10
19847;DHT22;10084;50.518;8.588;2023-02-26T17:54:40;20.30;35.20
19847;DHT22;10084;50.518;8.588;2023-02-26T17:57:06;20.30;35.30
19847;DHT22;10084;50.518;8.588;2023-02-26T17:59:34;20.30;35.30
19847;DHT22;10084;50.518;8.588;2023-02-26T18:02:00;20.30;35.20
19847;DHT22;10084;50.518;8.588;2023-02-26T18:04:26;20.40;35.40
19847;DHT22;10084;50.518;8.588;2023-02-26T18:06:54;20.40;35.40
19847;DHT22;10084;50.518;8.588;2023-02-26T18:09:19;20.40;35.40
19847;DHT22;10084;50.518;8.588;2023-02-26T18:11:45;20.50;35.50
19847;DHT22;10084;50.518;8.588;2023-02-26T18:14:11;20.50;35.50
19847;DHT22;10084;50.518;8.588;2023-02-26T18:16:39;20.50;35.60
19847;DHT22;10084;50.518;8.588;2023-02-26T18:19:06;20.60;35.60
19847;DHT22;10084;50.518;8.588;2023-02-26T18:21:33;20.60;35.60
19847;DHT22;10084;50.518;8.588;2023-02-26T18:23:59;20.60;35.60
19847;DHT22;10084;50.518;8.588;2023-02-26T18:26:26;20.60;35.60
19847;DHT22;10084;50.518;8.588;2023-02-26T18:28:55;20.60;35.60
19847;DHT22;10084;50.518;8.588;2023-02-26T18:31:22;20.60;35.60
19847;DHT22;10084;50.518;8.588;2023-02-26T18:33:49;20.60;35.60
19847;DHT22;10084;50.518;8.588;2023-02-26T18:36:24;20.70;35.70
19847;DHT22;10084;50.518;8.588;2023-02-26T18:38:55;20.70;35.70
19847;DHT22;10084;50.518;8.588;2023-02-26T18:41:26;20.70;35.70
19847;DHT22;10084;50.518;8.588;2023-02-26T18:43:52;20.80;35.70
19847;DHT22;10084;50.518;8.588;2023-02-26T18:46:18;20.80;35.80
19847;DHT22;10084;50.518;8.588;2023-02-26T18:48:44;20.80;36.40
19847;DHT22;10084;50.518;8.588;2023-02-26T18:51:12;20.80;35.70
19847;DHT22;10084;50.518;8.588;2023-02-26T18:53:38;20.80;35.70
19847;DHT22;10084;50.518;8.588;2023-02-26T18:56:04;20.90;35.70
19847;DHT22;10084;50.518;8.588;2023-02-26T18:58:30;20.90;35.70
19847;DHT22;10084;50.518;8.588;2023-02-26T19:00:56;20.90;35.70
19847;DHT22;10084;50.518;8.588;2023-02-26T19:03:24;21.00;35.80
19847;DHT22;10084;50.518;8.588;2023-02-26T19:06:02;21.00;35.80
19847;DHT22;10084;50.518;8.588;2023-02-26T19:08:28;21.00;35.80
19847;DHT22;10084;50.518;8.588;2023-02-26T19:10:55;21.10;35.80
19847;DHT22;10084;50.518;8.588;2023-02-26T19:13:23;21.10;36.50
19847;DHT22;10084;50.518;8.588;2023-02-26T19:15:49;21.10;35.80
19847;DHT22;10084;50.518;8.588;2023-02-26T19:18:15;21.10;35.80
19847;DHT22;10084;50.518;8.588;2023-02-26T19:20:41;21.10;35.80
19847;DHT22;10084;50.518;8.588;2023-02-26T19:23:07;21.20;35.80
19847;DHT22;10084;50.518;8.588;2023-02-26T19:25:35;21.20;35.80
19847;DHT22;10084;50.518;8.588;2023-02-26T19:28:00;21.20;35.80
19847;DHT22;10084;50.518;8.588;2023-02-26T19:30:26;21.20;35.80
19847;DHT22;10084;50.518;8.588;2023-02-26T19:32:54;21.20;35.80
19847;DHT22;10084;50.518;8.588;2023-02-26T19:35:20;21.20;35.80
19847;DHT22;10084;50.518;8.588;2023-02-26T19:37:47;21.20;35.80
19847;DHT22;10084;50.518;8.588;2023-02-26T19:40:13;21.20;35.80
19847;DHT22;10084;50.518;8.588;2023-02-26T19:42:44;21.20;35.80
19847;DHT22;10084;50.518;8.588;2023-02-26T19:45:12;21.20;35.80
19847;DHT22;10084;50.518;8.588;2023-02-26T19:47:39;21.30;35.90
19847;DHT22;10084;50.518;8.588;2023-02-26T19:50:06;21.30;35.90
19847;DHT22;10084;50.518;8.588;2023-02-26T19:52:33;21.30;35.80
19847;DHT22;10084;50.518;8.588;2023-02-26T19:55:01;21.30;35.80
19847;DHT22;10084;50.518;8.588;2023-02-26T19:57:28;21.30;35.80
19847;DHT22;10084;50.518;8.588;2023-02-26T19:59:54;21.30;36.60
19847;DHT22;10084;50.518;8.588;2023-02-26T20:02:20;21.30;35.80
19847;DHT22;10084;50.518;8.588;2023-02-26T20:04:46;21.30;35.80
19847;DHT22;10084;50.518;8.588;2023-02-26T20:07:12;21.30;35.80
19847;DHT22;10084;50.518;8.588;2023-02-26T20:09:38;21.40;35.90
19847;DHT22;10084;50.518;8.588;2023-02-26T20:12:04;21.40;35.90
19847;DHT22;10084;50.518;8.588;2023-02-26T20:14:30;21.40;35.90
19847;DHT22;10084;50.518;8.588;2023-02-26T20:16:56;21.40;35.90
19847;DHT22;10084;50.518;8.588;2023-02-26T20:19:22;21.40;35.80
19847;DHT22;10084;50.518;8.588;2023-02-26T20:21:48;21.50;35.70
19847;DHT22;10084;50.518;8.588;2023-02-26T20:24:14;21.50;35.70
19847;DHT22;10084;50.518;8.588;2023-02-26T20:26:41;21.50;35.60
19847;DHT22;10084;50.518;8.588;2023-02-26T20:29:07;21.50;35.60
19847;DHT22;10084;50.518;8.588;2023-02-26T20:31:34;21.50;35.50
19847;DHT22;10084;50.518;8.588;2023-02-26T20:34:00;21.50;35.50
19847;DHT22;10084;50.518;8.588;2023-02-26T20:36:26;21.60;35.40
19847;DHT22;10084;50.518;8.588;2023-02-26T20:38:52;21.60;35.30
19847;DHT22;10084;50.518;8.588;2023-02-26T20:41:18;21.70;35.30
19847;DHT22;10084;50.518;8.588;2023-02-26T20:43:44;21.70;35.20
19847;DHT22;10084;50.518;8.588;2023-02-26T20:46:10;21.70;35.10
19847;DHT22;10084;50.518;8.588;2023-02-26T20:48:37;21.80;35.10
19847;DHT22;10084;50.518;8.588;2023-02-26T20:51:06;21.80;35.00
19847;DHT22;10084;50.518;8.588;2023-02-26T20:53:34;21.90;35.00
19847;DHT22;10084;50.518;8.588;2023-02-26T20:56:00;21.90;35.00
19847;DHT22;10084;50.518;8.588;2023-02-26T20:58:26;22.00;35.00
19847;DHT22;10084;50.518;8.588;2023-02-26T21:00:57;22.10;35.00
19847;DHT22;10084;50.518;8.588;2023-02-26T21:03:23;22.20;35.00
19847;DHT22;10084;50.518;8.588;2023-02-26T21:05:49;22.30;34.90
19847;DHT22;10084;50.518;8.588;2023-02-26T21:08:16;22.40;35.00
19847;DHT22;10084;50.518;8.588;2023-02-26T21:10:42;22.60;35.00
19847;DHT22;10084;50.518;8.588;2023-02-26T21:13:08;22.70;35.00
19847;DHT22;10084;50.518;8.588;2023-02-26T21:15:34;22.90;35.00
19847;DHT22;10084;50.518;8.588;2023-02-26T21:18:00;23.00;35.00
19847;DHT22;10084;50.518;8.588;2023-02-26T21:20:26;23.10;35.00
19847;DHT22;10084;50.518;8.588;2023-02-26T21:22:52;23.20;35.00
19847;DHT22;10084;50.518;8.588;2023-02-26T21:25:21;23.30;35.00
19847;DHT22;10084;50.518;8.588;2023-02-26T21:27:47;23.40;35.00
19847;DHT22;10084;50.518;8.588;2023-02-26T21:30:13;23.60;35.10
19847;DHT22;10084;50.518;8.588;2023-02-26T21:32:39;23.60;35.00
19847;DHT22;10084;50.518;8.588;2023-02-26T21:35:07;23.70;35.10
19847;DHT22;10084;50.518;8.588;2023-02-26T21:37:43;23.80;35.00
19847;DHT22;10084;50.518;8.588;2023-02-26T21:40:10;23.80;34.80
19847;DHT22;10084;50.518;8.588;2023-02-26T21:42:36;23.90;34.80
19847;DHT22;10084;50.518;8.588;2023-02-26T21:45:03;23.90;34.70
19847;DHT22;10084;50.518;8.588;2023-02-26T21:47:28;23.90;34.70
19847;DHT22;10084;50.518;8.588;2023-02-26T21:49:54;24.00;34.80
19847;DHT22;10084;50.518;8.588;2023-02-26T21:52:20;24.00;34.80
19847;DHT22;10084;50.518;8.588;2023-02-26T21:54:46;24.00;34.80
19847;DHT22;10084;50.518;8.588;2023-02-26T21:57:11;24.00;34.80
19847;DHT22;10084;50.518;8.588;2023-02-26T21:59:37;24.00;34.80
